Time;durP1;ratioP1;P1;durP2;ratioP2;P2;SDS_P1;SDS_P2;PMS_P1;PMS_P2;Temp;Humidity;BMP_temperature;BMP_pressure;BME280_temperature;BME280_humidity;BME280_pressure;Samples;Min_cycle;Max_cycle;Signal;HPM_P1;HPM_P2
2022/06/15 00:01:00;;;;;;;11.20;3.67;;;22.10;57.10;;;;;;5012824;28;20109;-75
2022/06/15 00:03:28;;;;;;;11.35;4.13;;;22.20;57.10;;;;;;5014161;28;20056;-75
2022/06/15 00:06:09;;;;;;;10.90;3.50;;;22.10;56.90;;;;;;5013142;28;20076;-74
2022/06/15 00:08:36;;;;;;;10.88;3.70;;;22.10;56.90;;;;;;4996010;28;20045;-75
2022/06/15 00:11:20;;;;;;;15.60;3.90;;;22.10;56.80;;;;;;5014578;28;20057;-74
2022/06/15 00:13:46;;;;;;;9.55;3.58;;;22.10;56.70;;;;;;5012951;28;20124;-74
2022/06/15 00:16:13;;;;;;;9.15;3.67;;;22.10;56.70;;;;;;4996818;28;20081;-74
2022/06/15 00:18:39;;;;;;;9.20;4.00;;;22.10;56.50;;;;;;5013097;28;20025;-74
2022/06/15 00:21:06;;;;;;;7.68;3.22;;;22.10;56.70;;;;;;4996486;28;20053;-74
2022/06/15 00:23:33;;;;;;;9.63;3.40;;;22.10;56.60;;;;;;5012439;28;20501;-74
2022/06/15 00:25:59;;;;;;;10.15;3.55;;;22.10;56.70;;;;;;5014001;28;20018;-74
2022/06/15 00:28:28;;;;;;;14.38;4.22;;;22.10;56.50;;;;;;5012882;28;20037;-74
2022/06/15 00:30:54;;;;;;;16.65;3.65;;;22.10;56.60;;;;;;5013832;28;20026;-74
2022/06/15 00:33:22;;;;;;;9.23;3.60;;;22.10;56.50;;;;;;5013846;28;20478;-75
2022/06/15 00:35:59;;;;;;;9.13;3.17;;;22.10;56.40;;;;;;5013857;28;20026;-74
2022/06/15 00:38:34;;;;;;;8.73;3.17;;;22.10;56.50;;;;;;5011883;28;20508;-74
2022/06/15 00:41:00;;;;;;;10.85;3.25;;;22.10;56.50;;;;;;5013721;28;20033;-74
2022/06/15 00:43:37;;;;;;;10.25;3.53;;;22.10;56.30;;;;;;5012382;28;20475;-74
2022/06/15 00:46:37;;;;;;;12.68;3.83;;;22.10;56.20;;;;;;5013541;28;20038;-74
2022/06/15 00:49:06;;;;;;;9.57;3.80;;;22.10;56.20;;;;;;4990433;28;20034;-74
2022/06/15 00:51:32;;;;;;;9.25;3.33;;;22.10;56.00;;;;;;5013531;28;20495;-74
2022/06/15 00:53:59;;;;;;;9.60;3.40;;;22.10;56.20;;;;;;4979867;28;20068;-74
2022/06/15 00:56:27;;;;;;;10.40;3.53;;;22.10;56.10;;;;;;5012206;28;20602;-74
2022/06/15 00:58:57;;;;;;;10.88;3.80;;;22.10;56.10;;;;;;5012138;28;20052;-74
2022/06/15 01:01:24;;;;;;;8.63;3.45;;;22.10;55.90;;;;;;5012038;28;20022;-74
2022/06/15 01:03:51;;;;;;;7.35;3.08;;;22.10;56.00;;;;;;5012114;28;20077;-74
2022/06/15 01:06:49;;;;;;;10.23;3.50;;;22.10;56.00;;;;;;4996206;28;20482;-74
2022/06/15 01:09:30;;;;;;;10.23;3.40;;;22.10;56.00;;;;;;4990935;28;20042;-73
2022/06/15 01:12:06;;;;;;;10.80;3.50;;;22.10;56.00;;;;;;5011797;28;20030;-74
2022/06/15 01:14:34;;;;;;;9.80;3.63;;;22.10;56.00;;;;;;5011387;28;20108;-74
2022/06/15 01:17:15;;;;;;;9.85;3.72;;;22.10;55.80;;;;;;5012888;28;20379;-74
2022/06/15 01:19:58;;;;;;;10.02;3.58;;;22.10;55.80;;;;;;4995235;28;20069;-75
2022/06/15 01:22:48;;;;;;;12.65;3.42;;;22.10;55.90;;;;;;5011635;28;20068;-74
2022/06/15 01:25:35;;;;;;;6.40;2.95;;;22.00;55.70;;;;;;5013161;28;20026;-74
2022/06/15 01:28:29;;;;;;;8.32;3.08;;;22.00;55.70;;;;;;5010868;28;20542;-74
2022/06/15 01:31:27;;;;;;;6.75;2.78;;;22.10;55.90;;;;;;5012699;28;20049;-74
2022/06/15 01:34:11;;;;;;;8.40;3.47;;;22.00;55.80;;;;;;4972468;28;20038;-74
2022/06/15 01:36:53;;;;;;;8.13;3.22;;;22.00;55.70;;;;;;5011486;28;20109;-74
2022/06/15 01:39:28;;;;;;;6.18;2.75;;;22.10;55.70;;;;;;5010692;28;20040;-74
2022/06/15 01:42:15;;;;;;;9.18;3.15;;;22.10;55.80;;;;;;5012571;28;20034;-74
2022/06/15 01:44:46;;;;;;;7.35;3.10;;;22.10;55.70;;;;;;5011278;28;20030;-74
2022/06/15 01:47:22;;;;;;;6.88;2.53;;;22.10;55.60;;;;;;5010977;28;20069;-74
2022/06/15 01:50:04;;;;;;;8.27;3.38;;;22.10;55.60;;;;;;5011188;28;20030;-73
2022/06/15 01:52:35;;;;;;;7.03;3.00;;;22.10;55.60;;;;;;5011190;28;20033;-74
2022/06/15 01:55:08;;;;;;;8.98;3.50;;;22.10;55.50;;;;;;5011635;28;20034;-74
2022/06/15 01:57:37;;;;;;;7.80;3.20;;;22.10;56.00;;;;;;5010120;28;20081;-73
2022/06/15 02:00:11;;;;;;;9.53;3.40;;;22.10;55.40;;;;;;5010728;28;20116;-74
2022/06/15 02:03:05;;;;;;;6.57;2.85;;;22.10;55.50;;;;;;5012263;28;20036;-73
2022/06/15 02:05:55;;;;;;;11.65;2.92;;;22.10;55.50;;;;;;5010818;28;20038;-73
2022/06/15 02:08:31;;;;;;;7.75;3.20;;;22.00;55.30;;;;;;5009783;28;20034;-73
2022/06/15 02:11:12;;;;;;;8.68;2.90;;;22.10;55.40;;;;;;4994639;28;20037;-73
2022/06/15 02:14:19;;;;;;;6.38;2.80;;;22.00;55.30;;;;;;5010330;28;20026;-74
2022/06/15 02:16:52;;;;;;;8.00;3.05;;;22.10;55.30;;;;;;5010628;28;20443;-74
2022/06/15 02:19:32;;;;;;;6.72;2.92;;;22.00;55.30;;;;;;5009939;28;20100;-74
2022/06/15 02:22:03;;;;;;;5.65;2.55;;;22.10;55.50;;;;;;5010561;28;20078;-74
2022/06/15 02:24:32;;;;;;;5.90;2.70;;;22.00;55.30;;;;;;5010729;28;20030;-74
2022/06/15 02:26:58;;;;;;;7.78;2.58;;;22.00;55.30;;;;;;5010398;28;20029;-74
2022/06/15 02:29:27;;;;;;;6.43;2.92;;;22.00;55.30;;;;;;5009581;28;20077;-74
2022/06/15 02:31:57;;;;;;;6.63;2.83;;;22.00;55.30;;;;;;4994326;28;20056;-74
2022/06/15 02:34:25;;;;;;;6.57;2.80;;;22.00;55.20;;;;;;4994126;28;20391;-74
2022/06/15 02:36:52;;;;;;;6.22;2.90;;;22.00;55.30;;;;;;5010305;28;20403;-74
2022/06/15 02:39:20;;;;;;;6.20;2.85;;;22.00;55.30;;;;;;5009122;28;20172;-73
2022/06/15 02:42:16;;;;;;;9.80;2.92;;;22.00;55.30;;;;;;5010183;28;20052;-73
2022/06/15 02:44:42;;;;;;;6.85;2.72;;;22.00;55.20;;;;;;4993921;28;20026;-74
2022/06/15 02:47:08;;;;;;;5.82;2.63;;;22.00;55.20;;;;;;5009952;28;20501;-74
2022/06/15 02:49:33;;;;;;;7.75;2.65;;;22.00;55.20;;;;;;5009667;28;20053;-74
2022/06/15 02:52:06;;;;;;;7.00;3.28;;;22.00;55.70;;;;;;5010047;28;20040;-73
2022/06/15 02:54:40;;;;;;;7.07;2.90;;;22.00;55.20;;;;;;5011719;28;20037;-75
2022/06/15 02:57:12;;;;;;;6.95;2.90;;;22.00;55.00;;;;;;4993433;28;20395;-73
2022/06/15 02:59:39;;;;;;;6.32;2.65;;;22.10;55.20;;;;;;4993548;28;20040;-74
2022/06/15 03:02:06;;;;;;;7.85;2.70;;;22.00;55.10;;;;;;5009913;28;20026;-74
2022/06/15 03:04:35;;;;;;;8.90;3.10;;;22.00;55.10;;;;;;5010094;28;20030;-74
2022/06/15 03:07:01;;;;;;;6.10;2.78;;;22.00;55.10;;;;;;4993521;28;20620;-73
2022/06/15 03:09:27;;;;;;;5.65;2.67;;;22.00;55.00;;;;;;5009463;28;20049;-73
2022/06/15 03:11:54;;;;;;;6.60;2.78;;;22.00;55.10;;;;;;4977787;28;20325;-73
2022/06/15 03:14:29;;;;;;;5.68;2.50;;;22.00;55.00;;;;;;5009889;28;20040;-74
2022/06/15 03:17:00;;;;;;;5.47;2.45;;;22.00;55.10;;;;;;5009955;28;20101;-73
2022/06/15 03:19:36;;;;;;;6.35;2.30;;;22.00;55.10;;;;;;4993419;28;20442;-74
2022/06/15 03:22:02;;;;;;;7.78;2.65;;;22.00;55.00;;;;;;5009714;28;20077;-73
2022/06/15 03:24:31;;;;;;;4.97;2.15;;;22.00;55.00;;;;;;5010392;28;20034;-74
2022/06/15 03:26:58;;;;;;;4.90;2.55;;;22.00;55.00;;;;;;4996530;28;20060;-74
2022/06/15 03:29:24;;;;;;;5.78;2.42;;;22.00;55.00;;;;;;5012890;28;20037;-74
2022/06/15 03:31:53;;;;;;;4.80;2.70;;;22.00;55.00;;;;;;5013931;28;20113;-74
2022/06/15 03:34:23;;;;;;;5.50;2.50;;;22.00;55.00;;;;;;5013996;28;20030;-74
2022/06/15 03:36:50;;;;;;;5.15;2.35;;;22.00;54.90;;;;;;4997414;28;20080;-74
2022/06/15 03:39:16;;;;;;;6.80;2.50;;;22.00;55.00;;;;;;5012822;28;20034;-74
2022/06/15 03:41:42;;;;;;;6.07;2.50;;;22.00;55.60;;;;;;5013625;28;20375;-74
2022/06/15 03:44:10;;;;;;;6.07;2.67;;;22.00;55.00;;;;;;4997200;28;20022;-74
2022/06/15 03:46:37;;;;;;;6.32;2.50;;;22.00;55.00;;;;;;4997364;28;20199;-73
2022/06/15 03:49:11;;;;;;;5.97;2.63;;;22.00;54.90;;;;;;5012449;28;20521;-73
2022/06/15 03:51:38;;;;;;;6.88;2.60;;;22.00;54.80;;;;;;4997285;28;20403;-73
2022/06/15 03:54:03;;;;;;;5.68;2.40;;;22.00;54.90;;;;;;5013345;28;20025;-74
2022/06/15 03:56:43;;;;;;;7.90;2.80;;;22.00;54.90;;;;;;5013181;28;20041;-73
2022/06/15 03:59:14;;;;;;;4.85;2.35;;;22.00;54.80;;;;;;5012302;28;20034;-74
2022/06/15 04:01:41;;;;;;;5.10;2.45;;;22.00;54.90;;;;;;5013230;28;20034;-74
2022/06/15 04:04:07;;;;;;;5.45;2.67;;;22.00;54.80;;;;;;5013028;28;20036;-74
2022/06/15 04:06:33;;;;;;;6.25;2.00;;;22.00;54.80;;;;;;4996825;28;20034;-74
2022/06/15 04:09:00;;;;;;;5.32;2.40;;;22.00;54.80;;;;;;4995912;28;20041;-74
2022/06/15 04:14:30;;;;;;;4.38;2.20;;;22.00;54.90;;;;;;5013008;28;20372;-74
2022/06/15 04:17:18;;;;;;;5.88;2.35;;;22.00;54.80;;;;;;5012390;28;20380;-75
2022/06/15 04:22:46;;;;;;;4.38;2.20;;;22.00;54.80;;;;;;4996197;28;20030;-74
2022/06/15 04:25:12;;;;;;;5.15;2.30;;;22.00;54.80;;;;;;5012919;28;20036;-74
2022/06/15 04:27:38;;;;;;;3.90;2.13;;;22.00;54.80;;;;;;5011313;28;20101;-74
2022/06/15 04:30:09;;;;;;;5.82;2.45;;;22.00;54.80;;;;;;4996901;28;20026;-75
2022/06/15 04:32:36;;;;;;;6.45;2.55;;;22.00;54.80;;;;;;4996317;28;20034;-74
2022/06/15 04:35:06;;;;;;;5.72;2.47;;;22.00;54.80;;;;;;5012805;28;20041;-74
2022/06/15 04:37:37;;;;;;;6.05;2.53;;;22.00;54.80;;;;;;4995384;28;20406;-75
2022/06/15 04:40:12;;;;;;;6.65;2.58;;;22.00;54.80;;;;;;5012550;28;20034;-74
2022/06/15 04:42:40;;;;;;;4.60;2.22;;;22.00;54.80;;;;;;5012110;28;20030;-74
2022/06/15 04:45:08;;;;;;;8.05;2.85;;;22.00;54.70;;;;;;4996034;28;20498;-75
2022/06/15 04:47:41;;;;;;;5.45;2.47;;;21.90;54.70;;;;;;4995217;28;20029;-74
2022/06/15 04:50:08;;;;;;;5.30;2.40;;;22.00;54.70;;;;;;4996537;28;20022;-74
2022/06/15 04:52:41;;;;;;;5.03;2.40;;;22.00;54.70;;;;;;5012202;28;20464;-74
2022/06/15 04:55:15;;;;;;;5.65;2.65;;;22.00;54.70;;;;;;5012491;28;20096;-74
2022/06/15 04:57:42;;;;;;;5.15;2.35;;;22.00;54.70;;;;;;4995132;28;20384;-74
2022/06/15 05:00:13;;;;;;;5.25;2.22;;;22.00;54.60;;;;;;5011930;28;20052;-74
2022/06/15 05:02:39;;;;;;;5.25;2.42;;;22.00;54.60;;;;;;5011871;28;20034;-74
2022/06/15 05:05:07;;;;;;;4.40;2.38;;;22.00;55.10;;;;;;5012227;28;20084;-73
2022/06/15 05:07:32;;;;;;;7.90;2.65;;;22.00;54.60;;;;;;5010844;28;20829;-74
2022/06/15 05:09:59;;;;;;;5.53;2.45;;;22.00;54.60;;;;;;5012045;28;20030;-73
2022/06/15 05:12:25;;;;;;;3.83;2.00;;;22.00;54.60;;;;;;5011827;28;20498;-73
2022/06/15 05:14:53;;;;;;;5.22;2.40;;;22.00;54.60;;;;;;5011998;28;20026;-74
2022/06/15 05:17:22;;;;;;;4.95;2.60;;;22.00;54.60;;;;;;4994764;28;20041;-73
2022/06/15 05:19:50;;;;;;;4.95;2.30;;;22.00;54.60;;;;;;5011915;28;20033;-73
2022/06/15 05:22:17;;;;;;;4.18;2.35;;;22.00;54.60;;;;;;5011680;28;20044;-73
2022/06/15 05:24:44;;;;;;;4.22;2.17;;;22.00;54.60;;;;;;5011588;28;20440;-73
2022/06/15 05:27:12;;;;;;;4.50;2.03;;;22.00;54.60;;;;;;5011307;28;20097;-73
2022/06/15 05:29:39;;;;;;;3.78;2.17;;;22.00;54.60;;;;;;4995108;28;20044;-73
2022/06/15 05:32:12;;;;;;;5.97;2.75;;;22.00;54.60;;;;;;5011604;28;20526;-73
2022/06/15 05:34:38;;;;;;;4.30;2.10;;;22.00;54.60;;;;;;5011228;28;20040;-73
2022/06/15 05:37:05;;;;;;;4.80;2.17;;;22.00;54.60;;;;;;4995430;28;20077;-73
2022/06/15 05:39:35;;;;;;;5.18;2.40;;;22.00;54.90;;;;;;4994374;28;20057;-73
2022/06/15 05:42:03;;;;;;;3.92;2.17;;;22.00;54.60;;;;;;5011515;28;20041;-73
2022/06/15 05:47:00;;;;;;;5.38;2.28;;;22.00;54.50;;;;;;4995052;28;20113;-74
2022/06/15 05:49:36;;;;;;;8.18;2.40;;;22.00;54.60;;;;;;4993419;28;20117;-74
2022/06/15 05:52:05;;;;;;;4.00;2.03;;;22.00;54.60;;;;;;4994922;28;20030;-74
2022/06/15 05:54:34;;;;;;;6.05;2.50;;;22.00;55.10;;;;;;5010983;28;20038;-74
2022/06/15 05:57:00;;;;;;;5.93;2.30;;;22.00;54.50;;;;;;5012415;28;20533;-74
2022/06/15 05:59:25;;;;;;;3.75;2.10;;;22.00;54.50;;;;;;5009638;28;20053;-74
2022/06/15 06:01:51;;;;;;;5.43;2.25;;;22.00;54.50;;;;;;5010854;28;20034;-74
2022/06/15 06:04:19;;;;;;;4.03;2.30;;;22.00;54.50;;;;;;5011894;28;20444;-73
2022/06/15 06:06:51;;;;;;;3.95;2.28;;;22.00;54.50;;;;;;4994775;28;20758;-74
2022/06/15 06:09:16;;;;;;;5.45;2.20;;;22.00;54.40;;;;;;5009806;28;20030;-73
2022/06/15 06:11:42;;;;;;;5.18;2.28;;;22.00;54.50;;;;;;5011002;28;20105;-73
2022/06/15 06:14:08;;;;;;;4.93;2.10;;;22.00;55.10;;;;;;5011697;28;20037;-73
2022/06/15 06:16:34;;;;;;;5.30;2.22;;;22.00;54.50;;;;;;5011097;28;20080;-74
2022/06/15 06:19:00;;;;;;;3.88;2.08;;;22.00;54.50;;;;;;5009567;28;20030;-73
2022/06/15 06:21:26;;;;;;;5.35;2.58;;;22.00;54.50;;;;;;4994572;28;20034;-73
2022/06/15 06:23:52;;;;;;;4.38;2.00;;;22.00;54.40;;;;;;5011642;28;20026;-74
2022/06/15 06:26:28;;;;;;;5.10;2.33;;;22.00;54.40;;;;;;5011903;28;20037;-74
2022/06/15 06:28:54;;;;;;;4.78;2.45;;;22.00;54.40;;;;;;5011024;28;20052;-73
2022/06/15 06:31:20;;;;;;;4.18;2.28;;;22.00;54.50;;;;;;5010806;28;20022;-74
2022/06/15 06:33:47;;;;;;;3.33;2.10;;;22.00;54.40;;;;;;4993935;28;20546;-74
2022/06/15 06:36:18;;;;;;;4.80;2.20;;;22.00;54.40;;;;;;5011711;28;20026;-74
2022/06/15 06:38:44;;;;;;;4.30;2.30;;;22.00;54.40;;;;;;5010688;28;20026;-73
2022/06/15 06:41:12;;;;;;;5.80;2.45;;;22.00;54.50;;;;;;5010712;28;20403;-76
2022/06/15 06:43:37;;;;;;;5.10;2.10;;;22.00;54.90;;;;;;5010433;28;20085;-76
2022/06/15 06:46:05;;;;;;;8.07;2.35;;;22.00;55.00;;;;;;4994514;28;20395;-78
2022/06/15 06:48:30;;;;;;;3.75;1.98;;;22.10;55.00;;;;;;4993108;28;20034;-78
2022/06/15 06:50:56;;;;;;;5.20;2.63;;;22.00;54.30;;;;;;5011683;28;20018;-78
2022/06/15 06:53:22;;;;;;;7.32;2.47;;;22.10;53.80;;;;;;5011509;28;20054;-78
2022/06/15 06:55:48;;;;;;;22.13;5.53;;;22.10;53.90;;;;;;5010797;28;20390;-78
2022/06/15 06:58:13;;;;;;;17.13;5.25;;;22.10;53.90;;;;;;5009053;28;20038;-77
2022/06/15 07:00:39;;;;;;;10.80;4.30;;;22.10;52.70;;;;;;5021622;23;20046;-69
2022/06/15 07:03:06;;;;;;;16.27;4.38;;;22.00;50.40;;;;;;5008881;28;20113;-68
2022/06/15 07:05:36;;;;;;;14.05;3.55;;;22.00;49.30;;;;;;5009652;28;20060;-69
2022/06/15 07:08:02;;;;;;;11.23;3.40;;;21.90;49.10;;;;;;5010459;28;20116;-69
2022/06/15 07:10:28;;;;;;;8.90;3.13;;;21.80;48.70;;;;;;5008689;28;20029;-69
2022/06/15 07:12:55;;;;;;;8.15;2.83;;;21.70;48.50;;;;;;5031190;28;20063;-69
2022/06/15 07:15:21;;;;;;;11.45;2.95;;;21.80;49.60;;;;;;5029631;28;20030;-71
2022/06/15 07:17:47;;;;;;;12.60;3.63;;;21.80;49.30;;;;;;5029106;28;20037;-72
2022/06/15 07:20:13;;;;;;;13.32;2.78;;;21.80;48.80;;;;;;5030899;28;20390;-71
2022/06/15 07:22:39;;;;;;;12.35;2.63;;;21.80;48.60;;;;;;5031019;28;20441;-71
2022/06/15 07:25:06;;;;;;;7.82;2.72;;;21.80;49.30;;;;;;5030485;28;20037;-75
2022/06/15 07:27:36;;;;;;;13.00;2.70;;;21.80;48.30;;;;;;5029881;28;20120;-74
2022/06/15 07:30:05;;;;;;;8.52;2.45;;;21.80;48.80;;;;;;5013091;28;20533;-74
2022/06/15 07:32:31;;;;;;;12.05;2.70;;;21.80;49.60;;;;;;5030802;28;20040;-73
2022/06/15 07:34:57;;;;;;;18.00;2.95;;;21.90;49.80;;;;;;5030849;28;20029;-74
2022/06/15 07:37:23;;;;;;;12.43;2.58;;;22.00;51.10;;;;;;5030032;28;20034;-73
2022/06/15 07:39:48;;;;;;;10.13;2.47;;;21.90;50.80;;;;;;5030692;28;20033;-74
2022/06/15 07:42:14;;;;;;;9.57;2.33;;;22.00;51.60;;;;;;5030797;28;20065;-74
2022/06/15 07:44:40;;;;;;;11.55;2.60;;;22.00;51.70;;;;;;5013168;28;20026;-74
2022/06/15 07:49:55;;;;;;;18.60;2.70;;;22.00;51.80;;;;;;5029364;28;20059;-73
2022/06/15 07:52:23;;;;;;;8.57;2.40;;;22.00;51.90;;;;;;5030606;28;20036;-74
2022/06/15 07:54:49;;;;;;;10.27;2.63;;;22.00;52.50;;;;;;5029641;28;20045;-74
2022/06/15 07:57:16;;;;;;;11.35;2.88;;;22.00;52.60;;;;;;5012576;28;20042;-73
2022/06/15 07:59:42;;;;;;;15.25;2.92;;;22.00;52.80;;;;;;5030159;28;20036;-74
2022/06/15 08:02:09;;;;;;;11.85;2.70;;;22.00;52.90;;;;;;5029582;28;20029;-74
2022/06/15 08:04:35;;;;;;;8.77;2.20;;;22.00;52.90;;;;;;5029569;28;20021;-74
2022/06/15 08:07:01;;;;;;;7.78;2.50;;;22.00;53.00;;;;;;5030653;28;20026;-74
2022/06/15 08:09:27;;;;;;;10.18;2.47;;;22.00;53.10;;;;;;5029548;28;20104;-74
2022/06/15 08:12:11;;;;;;;6.95;2.38;;;22.00;53.20;;;;;;5031529;28;20030;-74
2022/06/15 08:14:44;;;;;;;10.23;2.42;;;22.00;53.20;;;;;;5033900;28;20479;-74
2022/06/15 08:17:13;;;;;;;7.28;2.25;;;22.00;53.10;;;;;;5033886;28;20482;-74
2022/06/15 08:19:43;;;;;;;8.98;2.67;;;22.00;53.10;;;;;;5033442;28;20379;-74
2022/06/15 08:22:10;;;;;;;7.07;2.25;;;22.00;53.10;;;;;;5016176;28;20069;-73
2022/06/15 08:24:37;;;;;;;10.15;2.65;;;22.00;53.10;;;;;;5032615;28;20033;-73
2022/06/15 08:27:03;;;;;;;8.30;2.38;;;22.00;53.10;;;;;;5032860;28;20032;-73
2022/06/15 08:29:30;;;;;;;9.38;2.30;;;22.00;53.10;;;;;;5032831;28;20037;-75
2022/06/15 08:31:57;;;;;;;10.20;2.47;;;22.00;53.00;;;;;;5032528;28;20068;-75
2022/06/15 08:34:28;;;;;;;7.30;2.53;;;22.00;53.10;;;;;;5032393;28;20514;-75
2022/06/15 08:36:55;;;;;;;7.85;2.50;;;22.00;53.20;;;;;;5032645;28;20128;-75
2022/06/15 08:39:21;;;;;;;6.78;2.45;;;22.10;53.80;;;;;;5032941;28;20026;-75
2022/06/15 08:42:14;;;;;;;7.60;2.53;;;22.00;53.20;;;;;;5033497;28;20043;-75
2022/06/15 08:44:59;;;;;;;16.80;2.67;;;22.00;53.20;;;;;;5032460;28;20088;-75
2022/06/15 08:47:47;;;;;;;8.02;2.15;;;22.00;53.30;;;;;;4999218;28;20026;-74
2022/06/15 08:50:39;;;;;;;6.55;2.47;;;22.10;53.30;;;;;;5032204;28;20029;-75
2022/06/15 08:53:15;;;;;;;6.75;2.25;;;22.10;53.30;;;;;;5033715;28;20040;-75
2022/06/15 08:55:51;;;;;;;13.45;2.50;;;22.10;53.40;;;;;;5033536;28;20060;-75
2022/06/15 08:58:33;;;;;;;6.85;2.30;;;22.10;53.40;;;;;;5032696;28;20052;-75
2022/06/15 09:01:08;;;;;;;7.47;2.17;;;22.10;53.40;;;;;;5033170;28;20052;-75
2022/06/15 09:03:40;;;;;;;7.10;2.40;;;22.10;53.50;;;;;;5031741;28;20029;-75
2022/06/15 09:06:21;;;;;;;10.35;2.65;;;22.10;53.50;;;;;;5033311;28;20497;-75
2022/06/15 09:09:05;;;;;;;7.72;2.15;;;22.10;53.50;;;;;;5032260;28;20482;-75
2022/06/15 09:11:52;;;;;;;7.90;2.20;;;22.10;53.60;;;;;;5033016;28;20037;-75
2022/06/15 09:14:34;;;;;;;6.50;2.33;;;22.10;53.50;;;;;;5032838;28;20134;-75
2022/06/15 09:17:18;;;;;;;6.93;2.05;;;22.10;53.50;;;;;;5032969;28;20443;-75
2022/06/15 09:19:53;;;;;;;6.32;2.10;;;22.10;53.60;;;;;;5031306;28;20083;-75
2022/06/15 09:22:23;;;;;;;7.47;2.28;;;22.10;53.60;;;;;;5031478;28;20124;-75
2022/06/15 09:24:56;;;;;;;5.90;2.17;;;22.10;53.60;;;;;;5032001;28;20034;-75
2022/06/15 09:27:48;;;;;;;4.38;2.05;;;22.10;53.60;;;;;;5032094;28;20026;-75
2022/06/15 09:30:19;;;;;;;6.40;2.00;;;22.10;53.70;;;;;;5028204;28;20611;-75
2022/06/15 09:33:18;;;;;;;6.55;2.00;;;22.10;53.80;;;;;;5014948;28;20038;-75
2022/06/15 09:36:02;;;;;;;8.77;2.60;;;22.10;53.80;;;;;;5007836;28;20128;-75
2022/06/15 09:38:30;;;;;;;6.03;2.15;;;22.10;53.80;;;;;;5030456;28;20030;-75
2022/06/15 09:41:21;;;;;;;6.70;2.30;;;22.10;53.70;;;;;;5032309;28;20032;-75
2022/06/15 09:44:04;;;;;;;7.20;1.92;;;22.10;53.90;;;;;;5032325;28;20032;-75
2022/06/15 09:46:47;;;;;;;6.85;2.17;;;22.10;53.80;;;;;;5032285;28;20039;-75
2022/06/15 09:49:28;;;;;;;6.07;2.25;;;22.10;54.40;;;;;;5031375;28;20044;-75
2022/06/15 09:52:07;;;;;;;5.88;1.83;;;22.10;53.80;;;;;;5032279;28;20100;-75
2022/06/15 09:55:10;;;;;;;5.97;1.70;;;22.10;53.80;;;;;;5031129;28;20083;-75
2022/06/15 09:57:38;;;;;;;4.28;1.85;;;22.10;53.80;;;;;;5031406;28;20026;-75
2022/06/15 10:00:09;;;;;;;5.75;2.00;;;22.10;53.80;;;;;;5031555;28;20075;-75
2022/06/15 10:02:39;;;;;;;5.18;1.80;;;22.10;53.80;;;;;;5032101;28;20036;-75
2022/06/15 10:05:15;;;;;;;4.30;2.00;;;22.10;53.70;;;;;;5030740;28;20036;-75
2022/06/15 10:07:43;;;;;;;6.93;1.90;;;22.10;53.90;;;;;;5013585;28;20091;-75
2022/06/15 10:10:26;;;;;;;4.47;1.90;;;22.10;53.90;;;;;;5030830;28;20028;-75
2022/06/15 10:12:56;;;;;;;6.78;2.13;;;22.10;54.00;;;;;;5031780;28;20037;-74
2022/06/15 10:15:47;;;;;;;;;;;22.10;54.50;;;;;;5032372;28;20072;-74
2022/06/15 10:18:19;;;;;;;3.63;1.80;;;22.10;53.90;;;;;;5031368;28;19947;-75
2022/06/15 10:20:58;;;;;;;3.83;2.00;;;22.10;53.90;;;;;;5014267;28;20067;-74
2022/06/15 10:23:38;;;;;;;4.32;1.88;;;22.10;53.90;;;;;;5031770;28;20049;-74
2022/06/15 10:26:04;;;;;;;;;;;22.10;54.00;;;;;;5032270;28;20071;-75
2022/06/15 10:28:36;;;;;;;4.55;1.80;;;22.10;54.60;;;;;;5030803;28;19944;-74
2022/06/15 10:31:07;;;;;;;4.53;1.73;;;22.10;54.00;;;;;;5031490;28;20021;-74
2022/06/15 10:33:46;;;;;;;6.55;2.28;;;22.10;54.00;;;;;;5031416;28;20144;-74
2022/06/15 10:36:33;;;;;;;4.72;1.85;;;22.10;54.10;;;;;;5031151;28;20075;-74
2022/06/15 10:39:04;;;;;;;5.65;1.83;;;22.10;54.20;;;;;;5028753;28;20039;-74
2022/06/15 10:41:46;;;;;;;4.63;2.05;;;22.10;54.20;;;;;;5031094;28;20029;-74
2022/06/15 10:44:18;;;;;;;4.70;1.85;;;22.10;54.10;;;;;;5030112;28;20398;-74
2022/06/15 10:47:05;;;;;;;8.88;2.17;;;22.10;54.20;;;;;;5031337;28;20075;-75
2022/06/15 10:49:41;;;;;;;4.95;1.85;;;22.10;54.10;;;;;;5030687;28;20029;-74
2022/06/15 10:52:34;;;;;;;5.63;1.85;;;22.10;54.10;;;;;;5031111;28;20103;-75
2022/06/15 11:04:09;;;;;;;3.63;1.60;;;22.10;53.90;;;;;;5031021;28;20486;-75
2022/06/15 11:06:45;;;;;;;4.35;1.85;;;22.10;54.00;;;;;;5031102;28;20049;-74
2022/06/15 11:09:21;;;;;;;7.95;1.80;;;22.10;53.90;;;;;;5028876;28;20117;-75
2022/06/15 11:11:48;;;;;;;4.07;1.80;;;22.10;53.90;;;;;;5031026;28;20045;-74
2022/06/15 11:14:51;;;;;;;5.25;1.73;;;22.10;54.00;;;;;;5030173;28;20505;-73
2022/06/15 11:20:34;;;;;;;6.03;2.00;;;22.10;54.10;;;;;;5030964;28;20025;-74
2022/06/15 11:23:14;;;;;;;5.13;2.00;;;22.10;54.00;;;;;;5030411;28;20030;-76
2022/06/15 11:25:54;;;;;;;4.50;1.90;;;22.10;54.00;;;;;;5030797;28;20108;-76
2022/06/15 11:28:25;;;;;;;4.57;1.58;;;22.10;54.20;;;;;;5029174;28;20029;-75
2022/06/15 11:31:14;;;;;;;5.13;1.80;;;22.10;54.10;;;;;;5029651;28;20040;-75
2022/06/15 11:33:45;;;;;;;3.33;1.70;;;22.10;54.10;;;;;;5030838;28;20053;-74
2022/06/15 11:36:15;;;;;;;4.07;1.77;;;22.00;54.10;;;;;;5031439;28;20033;-76
2022/06/15 11:38:56;;;;;;;4.55;1.58;;;22.10;54.10;;;;;;5029824;28;20478;-75
2022/06/15 11:41:28;;;;;;;3.13;1.63;;;22.10;54.20;;;;;;5029739;28;20033;-75
2022/06/15 11:43:56;;;;;;;3.75;1.58;;;22.10;54.20;;;;;;5030623;28;20394;-75
2022/06/15 11:46:41;;;;;;;4.63;1.80;;;22.10;54.20;;;;;;5030899;28;20028;-75
2022/06/15 11:49:59;;;;;;;4.53;1.75;;;22.10;54.20;;;;;;5015723;28;20454;-75
2022/06/15 11:52:46;;;;;;;5.35;2.03;;;22.10;54.20;;;;;;5020332;28;20483;-75
2022/06/15 11:55:32;;;;;;;5.15;2.03;;;22.10;54.10;;;;;;5034736;28;20037;-75
2022/06/15 11:58:03;;;;;;;4.30;1.85;;;22.10;54.00;;;;;;5033665;28;20045;-75
2022/06/15 12:00:32;;;;;;;2.80;1.63;;;22.10;54.10;;;;;;5034604;28;20083;-76
2022/06/15 12:03:04;;;;;;;5.85;1.77;;;22.10;54.00;;;;;;5016230;28;20048;-76
2022/06/15 12:05:59;;;;;;;2.85;1.50;;;22.10;54.00;;;;;;5033336;28;20080;-75
2022/06/15 12:08:54;;;;;;;3.92;1.60;;;22.10;54.00;;;;;;5019332;28;20042;-75
2022/06/15 12:14:46;;;;;;;6.47;2.00;;;22.10;54.20;;;;;;5031275;28;20026;-75
2022/06/15 12:17:29;;;;;;;8.45;2.13;;;22.10;53.90;;;;;;5032509;28;20474;-74
2022/06/15 12:20:23;;;;;;;7.55;1.80;;;22.20;53.40;;;;;;5029106;28;20029;-76
2022/06/15 12:23:17;;;;;;;8.23;2.00;;;22.10;52.90;;;;;;5032541;28;20438;-76
2022/06/15 12:26:01;;;;;;;7.85;2.25;;;22.20;51.60;;;;;;5033694;28;20086;-74
2022/06/15 12:28:36;;;;;;;7.00;2.10;;;22.20;51.50;;;;;;5032018;28;20478;-76
2022/06/15 12:31:13;;;;;;;6.80;2.40;;;22.30;50.20;;;;;;5017057;28;20033;-75
2022/06/15 12:33:47;;;;;;;8.35;2.65;;;22.30;49.50;;;;;;5032600;28;20030;-75
2022/06/15 12:36:30;;;;;;;8.93;2.42;;;22.30;49.20;;;;;;5033336;28;20041;-74
2022/06/15 12:39:16;;;;;;;5.38;2.30;;;22.40;50.20;;;;;;5032650;28;20025;-75
2022/06/15 12:44:51;;;;;;;8.65;3.17;;;22.50;51.10;;;;;;5032870;28;20021;-75
2022/06/15 12:47:19;;;;;;;10.30;3.50;;;22.60;53.50;;;;;;5013585;28;20022;-75
2022/06/15 12:50:12;;;;;;;7.00;3.15;;;22.60;52.10;;;;;;5013476;28;20022;-75
2022/06/15 12:52:48;;;;;;;14.20;3.00;;;22.60;52.80;;;;;;4999817;28;20040;-75
2022/06/15 12:55:17;;;;;;;15.80;4.53;;;22.70;51.50;;;;;;5031385;28;20052;-75
2022/06/15 12:57:52;;;;;;;12.07;3.38;;;22.60;53.90;;;;;;5028607;28;20034;-75
2022/06/15 13:00:24;;;;;;;15.23;3.88;;;22.60;51.50;;;;;;5028594;28;20118;-75
2022/06/15 13:03:32;;;;;;;12.55;4.03;;;22.60;52.50;;;;;;5026240;28;20041;-75
2022/06/15 13:06:25;;;;;;;13.90;4.28;;;22.60;49.80;;;;;;5030419;28;20033;-75
2022/06/15 13:09:00;;;;;;;12.13;3.63;;;22.60;49.50;;;;;;5029876;28;20057;-75
2022/06/15 13:11:27;;;;;;;11.60;3.13;;;22.60;49.50;;;;;;5025669;28;20021;-75
2022/06/15 13:13:54;;;;;;;13.63;3.33;;;22.60;49.20;;;;;;5029878;28;20058;-75
2022/06/15 13:16:32;;;;;;;8.60;3.28;;;22.60;49.10;;;;;;5029653;28;20030;-75
2022/06/15 13:19:00;;;;;;;13.15;3.22;;;22.60;48.60;;;;;;5029738;28;20045;-75
2022/06/15 13:21:28;;;;;;;12.07;3.00;;;22.60;48.00;;;;;;5027763;28;20030;-74
2022/06/15 13:24:06;;;;;;;7.95;2.75;;;22.50;48.70;;;;;;5029374;28;20030;-75
2022/06/15 13:26:39;;;;;;;8.85;2.70;;;22.50;47.10;;;;;;5029431;28;20106;-75
2022/06/15 13:29:10;;;;;;;9.20;2.60;;;22.60;47.30;;;;;;5018976;28;20061;-76
2022/06/15 13:31:42;;;;;;;10.38;3.08;;;22.50;48.60;;;;;;5031694;28;20029;-76
2022/06/15 13:34:14;;;;;;;8.35;2.72;;;22.50;47.90;;;;;;5030598;28;20022;-76
2022/06/15 13:36:43;;;;;;;8.30;3.17;;;22.50;46.90;;;;;;5026978;28;20033;-74
2022/06/15 13:39:51;;;;;;;6.43;2.80;;;22.50;47.10;;;;;;5013377;28;20032;-75
2022/06/15 13:42:23;;;;;;;6.25;3.03;;;22.50;48.30;;;;;;5018361;28;20103;-74
2022/06/15 13:45:08;;;;;;;6.82;2.92;;;22.50;46.50;;;;;;5030824;28;20048;-74
2022/06/15 13:47:48;;;;;;;12.30;3.15;;;22.50;47.30;;;;;;5010900;28;20030;-76